Time;durP1;ratioP1;P1;durP2;ratioP2;P2;SDS_P1;SDS_P2;PMS_P1;PMS_P2;Temp;Humidity;BMP_temperature;BMP_pressure;BME280_temperature;BME280_humidity;BME280_pressure;Samples;Min_cycle;Max_cycle;Signal;HPM_P1;HPM_P2
2021/09/04 00:02:20;;;;;;;7.13;6.07;;;12.80;99.90;;;;;;5030320;28;20475;-69
2021/09/04 00:04:46;;;;;;;6.23;5.60;;;12.80;99.90;;;;;;5031395;28;20464;-68
2021/09/04 00:07:13;;;;;;;5.77;5.23;;;12.80;99.90;;;;;;5030654;28;20858;-69
2021/09/04 00:09:40;;;;;;;5.90;5.30;;;12.80;99.90;;;;;;5030675;28;20464;-68
2021/09/04 00:12:08;;;;;;;10.93;6.73;;;12.80;99.90;;;;;;5030269;28;20464;-69
2021/09/04 00:14:35;;;;;;;6.30;5.63;;;12.80;99.90;;;;;;5030493;28;20485;-69
2021/09/04 00:17:02;;;;;;;8.47;5.70;;;12.80;99.90;;;;;;5030565;28;20888;-68
2021/09/04 00:19:30;;;;;;;5.70;5.17;;;12.70;99.90;;;;;;5030550;28;20467;-69
2021/09/04 00:21:57;;;;;;;6.10;5.40;;;12.70;99.90;;;;;;5030333;28;20460;-68
2021/09/04 00:24:24;;;;;;;6.17;5.53;;;12.70;99.90;;;;;;5030180;28;20479;-68
2021/09/04 00:26:50;;;;;;;9.00;6.40;;;12.60;99.90;;;;;;5030324;28;20479;-69
2021/09/04 00:29:17;;;;;;;8.40;6.00;;;12.60;99.90;;;;;;5030373;28;20975;-69
2021/09/04 00:31:44;;;;;;;8.40;6.07;;;12.60;99.90;;;;;;5030544;28;20472;-69
2021/09/04 00:34:10;;;;;;;7.60;6.20;;;12.60;99.90;;;;;;5029733;28;20488;-69
2021/09/04 00:36:38;;;;;;;8.63;5.90;;;12.50;99.90;;;;;;5030489;28;20483;-69
2021/09/04 00:39:06;;;;;;;7.20;5.90;;;12.50;99.90;;;;;;5030128;28;20460;-69
2021/09/04 00:41:34;;;;;;;8.47;5.50;;;12.50;99.90;;;;;;5030529;28;20460;-69
2021/09/04 00:44:01;;;;;;;6.93;5.33;;;12.50;99.90;;;;;;5029744;28;20558;-68
2021/09/04 00:46:28;;;;;;;11.40;6.10;;;12.50;99.90;;;;;;5030285;28;20464;-68
2021/09/04 00:48:55;;;;;;;9.30;6.03;;;12.50;99.90;;;;;;5030278;28;20955;-68
2021/09/04 00:51:21;;;;;;;6.57;5.87;;;12.50;99.90;;;;;;5030231;28;20464;-68
2021/09/04 00:53:51;;;;;;;10.43;5.93;;;12.40;99.90;;;;;;5029904;28;20966;-68
2021/09/04 00:56:18;;;;;;;7.77;5.47;;;12.40;99.90;;;;;;5030045;28;20472;-69
2021/09/04 00:58:45;;;;;;;9.03;5.53;;;12.40;99.90;;;;;;5030127;28;20510;-68
2021/09/04 01:01:12;;;;;;;6.50;5.65;;;12.30;99.90;;;;;;5030039;28;20460;-69
2021/09/04 01:03:38;;;;;;;7.03;6.20;;;12.30;99.90;;;;;;5029663;28;20669;-68
2021/09/04 01:06:05;;;;;;;7.50;5.87;;;12.40;99.90;;;;;;5030073;28;20460;-68
2021/09/04 01:08:32;;;;;;;7.97;6.10;;;12.40;99.90;;;;;;5030002;28;20480;-69
2021/09/04 01:11:00;;;;;;;7.97;6.67;;;12.40;99.90;;;;;;5030125;28;20970;-68
2021/09/04 01:13:27;;;;;;;8.90;6.57;;;12.30;99.90;;;;;;5029479;28;20460;-68
2021/09/04 01:15:54;;;;;;;8.13;6.07;;;12.30;99.90;;;;;;5030017;28;20538;-69
2021/09/04 01:18:22;;;;;;;6.70;6.00;;;12.30;99.90;;;;;;5029919;28;20485;-69
2021/09/04 01:20:49;;;;;;;7.03;5.67;;;12.30;99.90;;;;;;5030053;28;20925;-68
2021/09/04 01:23:15;;;;;;;6.83;5.63;;;12.30;99.90;;;;;;5029385;28;20491;-68
2021/09/04 01:25:42;;;;;;;6.70;5.77;;;12.30;99.90;;;;;;5029953;28;20467;-68
2021/09/04 01:28:10;;;;;;;9.00;6.20;;;12.20;99.90;;;;;;5029666;28;20492;-69
2021/09/04 01:30:37;;;;;;;7.23;5.57;;;12.20;99.90;;;;;;5029785;28;20468;-68
2021/09/04 01:33:04;;;;;;;6.63;5.17;;;12.20;99.90;;;;;;5029363;28;20482;-69
2021/09/04 01:35:31;;;;;;;8.70;6.13;;;12.20;99.90;;;;;;5031711;28;20488;-68
2021/09/04 01:37:57;;;;;;;7.20;5.90;;;12.20;99.90;;;;;;5033381;28;20476;-68
2021/09/04 01:40:24;;;;;;;6.20;5.60;;;12.10;99.90;;;;;;5033400;28;20822;-68
2021/09/04 01:42:51;;;;;;;14.53;5.90;;;12.10;99.90;;;;;;5033212;28;20552;-69
2021/09/04 01:45:19;;;;;;;7.43;6.20;;;12.10;99.90;;;;;;5033176;28;20467;-68
2021/09/04 01:47:46;;;;;;;9.53;5.80;;;12.10;99.90;;;;;;5033262;28;20480;-69
2021/09/04 01:50:14;;;;;;;8.97;6.17;;;12.10;99.90;;;;;;5032932;28;20964;-69
2021/09/04 01:52:42;;;;;;;8.43;6.00;;;12.10;99.90;;;;;;5032786;28;20490;-68
2021/09/04 01:55:10;;;;;;;7.37;5.43;;;12.10;99.90;;;;;;5032928;28;20535;-69
2021/09/04 01:57:37;;;;;;;7.13;6.00;;;12.10;99.90;;;;;;5033050;28;20492;-69
2021/09/04 02:00:06;;;;;;;8.07;6.20;;;12.10;99.90;;;;;;5032748;28;20202;-69
2021/09/04 02:02:34;;;;;;;7.63;5.87;;;12.10;99.90;;;;;;5032530;28;20467;-69
2021/09/04 02:05:00;;;;;;;8.20;5.80;;;12.00;99.90;;;;;;5032869;28;20468;-68
2021/09/04 02:07:27;;;;;;;7.80;6.07;;;11.90;99.90;;;;;;5032838;28;20491;-69
2021/09/04 02:09:54;;;;;;;12.53;6.67;;;11.90;99.90;;;;;;5032848;28;20460;-69
2021/09/04 02:12:21;;;;;;;7.83;5.57;;;11.90;99.90;;;;;;5032121;28;20475;-68
2021/09/04 02:14:47;;;;;;;9.43;6.80;;;11.90;99.90;;;;;;5032808;28;20826;-69
2021/09/04 02:17:14;;;;;;;9.50;5.83;;;11.90;99.90;;;;;;5032330;28;20480;-69
2021/09/04 02:19:42;;;;;;;8.50;6.40;;;11.90;99.90;;;;;;5032407;28;20468;-69
2021/09/04 02:22:11;;;;;;;7.93;6.03;;;11.90;99.90;;;;;;5032030;28;20460;-69
2021/09/04 02:24:38;;;;;;;9.60;6.40;;;11.90;99.90;;;;;;5032215;28;20468;-69
2021/09/04 02:27:05;;;;;;;6.80;5.83;;;11.90;99.90;;;;;;5098428;22;20455;-68
2021/09/04 02:29:32;;;;;;;7.40;6.30;;;11.90;99.90;;;;;;5090848;28;20457;-68
2021/09/04 02:31:58;;;;;;;5.95;5.35;;;11.80;99.90;;;;;;5092478;28;20968;-68
2021/09/04 02:34:25;;;;;;;6.85;5.90;;;11.80;99.90;;;;;;5092289;28;20211;-68
2021/09/04 02:36:53;;;;;;;7.77;6.60;;;11.70;99.90;;;;;;5092494;28;20481;-68
2021/09/04 02:39:20;;;;;;;7.60;6.80;;;11.70;99.90;;;;;;5092330;28;20461;-68
2021/09/04 02:41:47;;;;;;;7.53;5.67;;;11.70;99.90;;;;;;5092301;28;20807;-68
2021/09/04 02:44:13;;;;;;;10.43;6.30;;;11.70;99.90;;;;;;5091854;28;20468;-68
2021/09/04 02:46:40;;;;;;;7.25;5.63;;;11.70;99.90;;;;;;5091063;28;20488;-68
2021/09/04 02:49:07;;;;;;;9.17;6.00;;;11.70;99.90;;;;;;5092152;28;20667;-68
2021/09/04 02:51:35;;;;;;;10.20;5.50;;;11.60;99.90;;;;;;5092297;28;20464;-68
2021/09/04 02:54:03;;;;;;;7.40;6.13;;;11.60;99.90;;;;;;5091601;28;20469;-68
2021/09/04 02:56:30;;;;;;;9.40;5.93;;;11.60;99.90;;;;;;5092078;28;20482;-68
2021/09/04 02:58:56;;;;;;;9.57;5.78;;;11.60;99.90;;;;;;5091781;28;20480;-68
2021/09/04 03:01:23;;;;;;;6.93;5.60;;;11.60;99.90;;;;;;5092182;28;20200;-68
2021/09/04 03:03:50;;;;;;;6.88;5.80;;;11.60;99.90;;;;;;5091606;28;20461;-68
2021/09/04 03:06:16;;;;;;;6.70;5.70;;;11.50;99.90;;;;;;5091845;28;20203;-68
2021/09/04 03:08:43;;;;;;;7.50;6.50;;;11.50;99.90;;;;;;5091672;28;20468;-69
2021/09/04 03:11:11;;;;;;;6.90;5.83;;;11.50;99.90;;;;;;5091929;28;20226;-69
2021/09/04 03:13:38;;;;;;;7.23;5.47;;;11.40;99.90;;;;;;5091836;28;20466;-68
2021/09/04 03:16:05;;;;;;;8.13;6.17;;;11.40;99.90;;;;;;5091657;28;20486;-69
2021/09/04 03:18:31;;;;;;;9.90;6.47;;;11.40;99.90;;;;;;5091888;28;20843;-68
2021/09/04 03:20:58;;;;;;;7.70;6.30;;;11.40;99.90;;;;;;5091912;28;20461;-69
2021/09/04 03:23:25;;;;;;;7.87;6.37;;;11.40;99.90;;;;;;5091563;28;20461;-69
2021/09/04 03:25:51;;;;;;;6.32;5.47;;;11.40;99.90;;;;;;5091740;28;20995;-69
2021/09/04 03:28:20;;;;;;;7.50;5.43;;;11.30;99.90;;;;;;5091486;28;20231;-68
2021/09/04 03:30:46;;;;;;;6.60;5.88;;;11.30;99.90;;;;;;5091626;28;20226;-68
2021/09/04 03:33:13;;;;;;;8.13;5.28;;;11.30;99.90;;;;;;5090897;28;20692;-68
2021/09/04 03:35:40;;;;;;;8.82;6.68;;;11.30;99.90;;;;;;5091254;28;20722;-69
2021/09/04 03:38:07;;;;;;;9.02;5.55;;;11.30;99.90;;;;;;5091269;28;20219;-68
2021/09/04 03:40:33;;;;;;;5.88;4.95;;;11.30;99.90;;;;;;5091161;28;20210;-68
2021/09/04 03:43:00;;;;;;;6.63;5.55;;;11.30;99.90;;;;;;5090762;28;20200;-69
2021/09/04 03:45:28;;;;;;;8.63;5.68;;;11.30;99.90;;;;;;5091213;28;20203;-68
2021/09/04 03:47:55;;;;;;;9.10;6.10;;;11.20;99.90;;;;;;5091139;28;20622;-69
2021/09/04 03:50:22;;;;;;;6.27;5.77;;;11.20;99.90;;;;;;5091262;28;20204;-68
2021/09/04 03:52:48;;;;;;;10.68;5.85;;;11.20;99.90;;;;;;5090560;28;20457;-68
2021/09/04 03:55:15;;;;;;;8.02;5.78;;;11.30;99.90;;;;;;5090909;28;20223;-68
2021/09/04 03:57:42;;;;;;;6.72;6.03;;;11.20;99.90;;;;;;5090599;28;20228;-69
2021/09/04 04:00:10;;;;;;;6.40;5.18;;;11.20;99.90;;;;;;5090768;28;20206;-69
2021/09/04 04:02:38;;;;;;;6.13;5.53;;;11.20;99.90;;;;;;5090487;28;20206;-69
2021/09/04 04:05:05;;;;;;;6.85;5.72;;;11.20;99.90;;;;;;5090978;28;20223;-68
2021/09/04 04:07:32;;;;;;;6.95;5.53;;;11.10;99.90;;;;;;5090987;28;20630;-68
2021/09/04 04:09:59;;;;;;;8.07;5.70;;;11.10;99.90;;;;;;5090539;28;20204;-68
2021/09/04 04:12:28;;;;;;;9.25;5.85;;;11.10;99.90;;;;;;5090609;28;20465;-68
2021/09/04 04:14:55;;;;;;;6.32;5.55;;;11.10;99.90;;;;;;5090724;28;20203;-68
2021/09/04 04:17:22;;;;;;;6.03;5.40;;;11.00;99.90;;;;;;5090882;28;20223;-68
2021/09/04 04:19:50;;;;;;;8.38;5.68;;;11.00;99.90;;;;;;5090670;28;20458;-69
2021/09/04 04:22:17;;;;;;;6.25;5.65;;;11.00;99.90;;;;;;5090360;28;20219;-68
2021/09/04 04:24:43;;;;;;;9.73;6.20;;;11.00;99.90;;;;;;5090488;28;20200;-68
2021/09/04 04:27:12;;;;;;;5.88;5.30;;;11.00;99.90;;;;;;5090328;28;20223;-68
2021/09/04 04:29:39;;;;;;;7.18;5.63;;;11.00;99.90;;;;;;5090624;28;20211;-68
2021/09/04 04:32:06;;;;;;;7.32;5.65;;;11.00;99.90;;;;;;5074287;28;20589;-68
2021/09/04 04:34:33;;;;;;;7.38;5.78;;;11.00;99.90;;;;;;5070044;28;20204;-69
2021/09/04 04:37:01;;;;;;;7.70;5.35;;;11.00;99.90;;;;;;5070221;28;20228;-68
2021/09/04 04:39:27;;;;;;;6.97;5.27;;;11.00;99.90;;;;;;5070317;28;20211;-68
2021/09/04 04:41:54;;;;;;;5.90;5.30;;;11.00;99.90;;;;;;5070216;28;20458;-68
2021/09/04 04:44:21;;;;;;;7.40;5.63;;;11.00;99.90;;;;;;5069992;28;20200;-68
2021/09/04 04:46:47;;;;;;;7.38;6.03;;;11.00;99.90;;;;;;5070367;28;20216;-68
2021/09/04 04:49:14;;;;;;;7.80;5.53;;;10.90;99.90;;;;;;5070110;28;20564;-69
2021/09/04 04:51:41;;;;;;;6.68;5.75;;;10.90;99.90;;;;;;5070276;28;20266;-68
2021/09/04 04:54:11;;;;;;;5.97;5.38;;;10.90;99.90;;;;;;5069434;28;20205;-68
2021/09/04 04:56:38;;;;;;;6.78;6.10;;;10.90;99.90;;;;;;5069804;28;20232;-69
2021/09/04 04:59:05;;;;;;;11.13;5.57;;;10.90;99.90;;;;;;5069847;28;20571;-68
2021/09/04 05:01:32;;;;;;;8.77;5.40;;;10.80;99.90;;;;;;5070187;28;20201;-68
2021/09/04 05:03:58;;;;;;;6.32;5.72;;;10.90;99.90;;;;;;5069704;28;20208;-68
2021/09/04 05:06:25;;;;;;;5.55;5.05;;;10.90;99.90;;;;;;5070240;28;20211;-68
2021/09/04 05:08:52;;;;;;;6.28;5.68;;;10.90;99.90;;;;;;5069816;28;20598;-68
2021/09/04 05:11:20;;;;;;;8.53;6.27;;;10.90;99.90;;;;;;5073267;28;20200;-68
2021/09/04 05:13:46;;;;;;;5.47;4.90;;;10.90;99.90;;;;;;5073288;28;20549;-68
2021/09/04 05:16:14;;;;;;;7.32;5.60;;;10.90;99.90;;;;;;5073459;28;20212;-68
2021/09/04 05:18:41;;;;;;;9.30;6.22;;;11.00;99.90;;;;;;5073525;28;20200;-68
2021/09/04 05:21:08;;;;;;;6.50;5.80;;;11.00;99.90;;;;;;5073734;28;20730;-68
2021/09/04 05:23:35;;;;;;;6.53;5.63;;;11.00;99.90;;;;;;5073210;28;20278;-69
2021/09/04 05:26:01;;;;;;;6.07;5.47;;;11.00;99.90;;;;;;5073428;28;20204;-68
2021/09/04 05:28:29;;;;;;;7.07;6.38;;;11.00;99.90;;;;;;5073505;28;20997;-68
2021/09/04 05:30:56;;;;;;;6.63;5.70;;;11.10;99.90;;;;;;5073382;28;20209;-69
2021/09/04 05:33:23;;;;;;;6.53;5.65;;;11.10;99.90;;;;;;5073202;28;20254;-68
2021/09/04 05:35:50;;;;;;;8.35;6.03;;;11.10;99.90;;;;;;5073233;28;20699;-68
2021/09/04 05:38:16;;;;;;;7.13;5.90;;;11.20;99.90;;;;;;5073188;28;20224;-69
2021/09/04 05:40:43;;;;;;;7.45;6.43;;;11.20;99.90;;;;;;5073335;28;20204;-69
2021/09/04 05:43:10;;;;;;;9.10;6.70;;;11.20;99.90;;;;;;5072654;28;20204;-69
2021/09/04 05:45:38;;;;;;;10.10;6.07;;;11.20;99.90;;;;;;5073423;28;20196;-68
2021/09/04 05:48:05;;;;;;;7.22;6.53;;;11.30;99.90;;;;;;5072985;28;20224;-68
2021/09/04 05:50:32;;;;;;;6.93;5.80;;;11.30;99.90;;;;;;5073251;28;20201;-68
2021/09/04 05:52:59;;;;;;;7.05;5.80;;;11.40;99.90;;;;;;5072482;28;20546;-69
2021/09/04 05:55:25;;;;;;;6.80;6.20;;;11.40;99.90;;;;;;5071975;28;20207;-69
2021/09/04 05:57:52;;;;;;;13.15;5.55;;;11.50;99.90;;;;;;5072949;28;20228;-69
2021/09/04 06:00:19;;;;;;;7.00;5.63;;;11.50;99.90;;;;;;5072585;28;20197;-68
2021/09/04 06:02:47;;;;;;;8.40;6.33;;;11.60;99.90;;;;;;5071842;28;20667;-68
2021/09/04 06:05:14;;;;;;;11.27;6.18;;;11.60;99.90;;;;;;5070720;28;20494;-68
2021/09/04 06:07:41;;;;;;;9.43;6.30;;;11.70;99.90;;;;;;5072664;28;20711;-69
2021/09/04 06:10:08;;;;;;;8.45;5.75;;;11.70;99.90;;;;;;5072645;28;20470;-68
2021/09/04 06:12:35;;;;;;;7.55;5.70;;;11.80;99.90;;;;;;5072489;28;20197;-68
2021/09/04 06:15:02;;;;;;;8.02;6.70;;;11.90;99.90;;;;;;5072516;28;20208;-68
2021/09/04 06:17:29;;;;;;;7.20;6.30;;;11.90;99.90;;;;;;5072579;28;20228;-68
2021/09/04 06:19:57;;;;;;;8.27;6.03;;;12.00;99.90;;;;;;5072512;28;20454;-68
2021/09/04 06:22:24;;;;;;;7.82;6.05;;;12.10;99.90;;;;;;5072131;28;20462;-69
2021/09/04 06:24:50;;;;;;;7.57;6.50;;;12.20;99.90;;;;;;5072375;28;20213;-68
2021/09/04 06:27:17;;;;;;;9.80;8.20;;;12.30;99.90;;;;;;5072241;28;20576;-68
2021/09/04 06:29:44;;;;;;;11.20;9.43;;;12.40;99.90;;;;;;5072156;28;20889;-69
2021/09/04 06:32:10;;;;;;;13.20;9.43;;;12.50;99.90;;;;;;5072096;28;20462;-69
2021/09/04 06:34:38;;;;;;;13.80;9.80;;;12.60;99.90;;;;;;5071984;28;20899;-69
2021/09/04 06:37:06;;;;;;;14.63;10.23;;;12.70;99.90;;;;;;5071987;28;20486;-69
2021/09/04 06:39:33;;;;;;;14.48;11.27;;;12.80;99.90;;;;;;5071153;28;20845;-68
2021/09/04 06:42:00;;;;;;;14.80;10.90;;;13.00;99.90;;;;;;5071969;28;20208;-67
2021/09/04 06:44:26;;;;;;;19.20;10.83;;;13.10;99.90;;;;;;5071682;28;20833;-68
2021/09/04 06:46:53;;;;;;;30.67;12.87;;;13.20;99.90;;;;;;5072042;28;20471;-68
2021/09/04 06:49:20;;;;;;;23.07;10.73;;;13.30;99.90;;;;;;5071943;28;20458;-68
2021/09/04 06:51:47;;;;;;;14.30;9.80;;;13.40;99.90;;;;;;5071848;28;20462;-68
2021/09/04 06:54:15;;;;;;;12.57;9.80;;;13.50;99.90;;;;;;5071341;28;20470;-68
2021/09/04 06:56:41;;;;;;;12.07;9.87;;;13.70;99.90;;;;;;5071798;28;20487;-68
2021/09/04 06:59:10;;;;;;;41.13;12.70;;;13.80;99.90;;;;;;5071261;28;20493;-68
2021/09/04 07:01:37;;;;;;;35.67;13.10;;;13.90;99.90;;;;;;5068430;28;20460;-68
2021/09/04 07:04:04;;;;;;;18.67;10.60;;;14.00;99.90;;;;;;5061011;28;20493;-69
2021/09/04 07:06:31;;;;;;;14.30;10.50;;;14.10;99.90;;;;;;5061239;28;20455;-68
2021/09/04 07:08:57;;;;;;;14.60;10.30;;;14.30;99.90;;;;;;5059067;28;20463;-68
2021/09/04 07:11:25;;;;;;;21.47;11.60;;;14.40;99.90;;;;;;5060244;28;20455;-68
2021/09/04 07:13:52;;;;;;;20.67;10.80;;;14.50;99.90;;;;;;5060161;28;20460;-68
2021/09/04 07:16:20;;;;;;;20.80;11.20;;;14.70;99.90;;;;;;5059915;28;20483;-69
2021/09/04 07:18:46;;;;;;;21.73;12.90;;;14.80;99.90;;;;;;5061293;28;20995;-68
2021/09/04 07:21:13;;;;;;;17.30;10.13;;;15.00;99.90;;;;;;5059342;28;20463;-69
2021/09/04 07:23:40;;;;;;;16.93;10.00;;;15.10;99.90;;;;;;5059456;28;20459;-69
2021/09/04 07:26:07;;;;;;;15.30;9.47;;;15.30;99.90;;;;;;5060925;28;20466;-68
2021/09/04 07:28:35;;;;;;;27.67;9.93;;;15.50;99.90;;;;;;5059108;28;20855;-68
2021/09/04 07:31:01;;;;;;;10.30;8.93;;;15.70;99.90;;;;;;5059249;28;20455;-68
2021/09/04 07:33:28;;;;;;;10.23;8.63;;;15.90;99.90;;;;;;5060197;28;20451;-68
2021/09/04 07:35:55;;;;;;;14.47;10.00;;;16.10;99.90;;;;;;5060133;28;20455;-69
2021/09/04 07:38:23;;;;;;;12.87;9.73;;;16.30;99.90;;;;;;5060215;28;21006;-67
2021/09/04 07:40:50;;;;;;;9.90;8.60;;;16.40;99.90;;;;;;5061707;28;20450;-67
2021/09/04 07:43:17;;;;;;;10.20;7.47;;;16.60;99.90;;;;;;5058134;28;20459;-68
2021/09/04 07:45:45;;;;;;;8.30;7.40;;;16.70;99.90;;;;;;5064729;28;20473;-69
2021/09/04 07:48:11;;;;;;;9.00;8.03;;;16.80;99.90;;;;;;5070777;28;20482;-69
2021/09/04 07:50:38;;;;;;;9.10;7.50;;;16.90;99.90;;;;;;5070873;28;20465;-68
2021/09/04 07:53:05;;;;;;;10.07;7.53;;;17.00;99.90;;;;;;5070281;28;20463;-68
2021/09/04 07:55:34;;;;;;;8.33;6.17;;;17.10;99.90;;;;;;5070841;28;20455;-69
2021/09/04 07:58:01;;;;;;;8.47;6.50;;;17.10;99.90;;;;;;5070719;28;21021;-69
2021/09/04 08:00:27;;;;;;;8.53;7.63;;;17.20;99.90;;;;;;5070835;28;20459;-69
2021/09/04 08:02:55;;;;;;;9.00;7.60;;;17.30;99.90;;;;;;5070265;28;20458;-68
2021/09/04 08:05:22;;;;;;;9.17;6.43;;;17.40;99.90;;;;;;5067687;28;20469;-66
2021/09/04 08:07:49;;;;;;;7.70;6.77;;;17.60;99.90;;;;;;5070755;28;20766;-67
2021/09/04 08:10:16;;;;;;;8.37;7.10;;;17.60;99.90;;;;;;5071044;28;20462;-67
2021/09/04 08:12:42;;;;;;;7.43;6.70;;;17.80;99.90;;;;;;5070752;28;20467;-67
2021/09/04 08:15:10;;;;;;;8.00;7.23;;;17.90;99.90;;;;;;5070720;28;20942;-67
2021/09/04 08:17:37;;;;;;;7.57;6.50;;;18.10;99.90;;;;;;5071090;28;20483;-67
2021/09/04 08:20:06;;;;;;;8.93;6.90;;;18.20;99.90;;;;;;5070349;28;20466;-67
2021/09/04 08:22:33;;;;;;;8.73;6.90;;;18.40;99.90;;;;;;5070655;28;20833;-67
2021/09/04 08:25:00;;;;;;;10.23;9.23;;;18.50;99.90;;;;;;5070415;28;20465;-67
2021/09/04 08:27:27;;;;;;;9.83;8.83;;;18.70;99.90;;;;;;5070357;28;20478;-69
2021/09/04 08:29:53;;;;;;;10.30;8.00;;;18.80;99.90;;;;;;5124234;22;20511;-72
2021/09/04 08:32:20;;;;;;;10.03;8.30;;;19.00;99.90;;;;;;5030126;28;20955;-72
2021/09/04 08:34:47;;;;;;;9.00;7.30;;;19.10;99.90;;;;;;5029865;28;20468;-72
2021/09/04 08:37:15;;;;;;;9.53;7.60;;;19.20;99.90;;;;;;5030066;28;20495;-72
2021/09/04 08:39:42;;;;;;;8.47;7.30;;;19.30;99.90;;;;;;5030224;28;20952;-72
2021/09/04 08:42:10;;;;;;;8.53;6.17;;;19.40;99.90;;;;;;5030139;28;20837;-72
2021/09/04 08:44:37;;;;;;;8.33;7.07;;;19.50;99.90;;;;;;5032027;28;20471;-72
2021/09/04 08:47:04;;;;;;;8.20;7.40;;;19.60;99.90;;;;;;5034006;28;20855;-72
2021/09/04 08:49:35;;;;;;;7.93;7.13;;;19.70;99.90;;;;;;5034652;28;20463;-72
2021/09/04 08:52:02;;;;;;;6.80;6.07;;;19.80;99.90;;;;;;5034228;28;20492;-72
2021/09/04 08:54:30;;;;;;;7.93;6.47;;;19.90;99.90;;;;;;5033844;28;20460;-72
2021/09/04 08:56:56;;;;;;;9.17;7.10;;;20.00;99.90;;;;;;5034047;28;20492;-72
2021/09/04 08:59:23;;;;;;;9.57;6.60;;;20.20;99.90;;;;;;5034107;28;20467;-72
2021/09/04 09:01:50;;;;;;;7.60;6.23;;;20.30;99.90;;;;;;5033752;28;20834;-72
2021/09/04 09:04:19;;;;;;;8.30;6.30;;;20.40;99.90;;;;;;5033442;28;21149;-72
2021/09/04 09:06:46;;;;;;;10.37;6.07;;;20.50;99.90;;;;;;5034153;28;20495;-72
2021/09/04 09:09:18;;;;;;;7.87;6.37;;;20.70;99.90;;;;;;5034211;28;20483;-73
2021/09/04 09:11:47;;;;;;;5.93;5.33;;;20.80;99.90;;;;;;5046337;28;20939;-73
2021/09/04 09:14:14;;;;;;;8.53;6.00;;;20.90;99.90;;;;;;5053766;28;20466;-73
2021/09/04 09:16:52;;;;;;;6.97;5.60;;;21.00;99.90;;;;;;5053726;28;20478;-73
2021/09/04 09:19:25;;;;;;;10.63;6.03;;;21.00;99.90;;;;;;5053699;28;20630;-72
2021/09/04 09:21:54;;;;;;;6.57;5.40;;;21.20;99.90;;;;;;5032329;28;20464;-73
2021/09/04 09:24:21;;;;;;;6.03;5.43;;;21.30;99.90;;;;;;5033485;28;20467;-71
2021/09/04 09:26:52;;;;;;;8.47;5.90;;;21.40;99.90;;;;;;5033061;28;20491;-71
2021/09/04 09:29:21;;;;;;;5.43;4.90;;;21.50;99.90;;;;;;5031901;28;20543;-71
2021/09/04 09:31:48;;;;;;;5.70;5.10;;;21.60;99.90;;;;;;5033436;28;20468;-71
2021/09/04 09:34:16;;;;;;;10.10;5.27;;;21.70;99.90;;;;;;5033361;28;20468;-71
2021/09/04 09:37:02;;;;;;;5.23;4.50;;;21.80;99.90;;;;;;5033385;28;20491;-71
2021/09/04 09:39:32;;;;;;;5.63;5.10;;;21.90;99.90;;;;;;5033735;28;20459;-71
2021/09/04 09:42:01;;;;;;;7.10;4.90;;;22.00;99.90;;;;;;5033235;28;20495;-71
2021/09/04 09:44:29;;;;;;;6.10;5.50;;;22.10;99.90;;;;;;5032815;28;20837;-71
2021/09/04 09:46:58;;;;;;;10.63;6.10;;;22.20;99.90;;;;;;5033118;28;20484;-71
2021/09/04 09:49:29;;;;;;;6.40;4.80;;;22.30;99.90;;;;;;5032846;28;20452;-71
2021/09/04 09:52:00;;;;;;;7.27;5.30;;;22.40;99.90;;;;;;5032743;28;20464;-71
2021/09/04 09:54:30;;;;;;;6.83;5.03;;;22.40;99.90;;;;;;5032497;28;20460;-71
2021/09/04 09:56:57;;;;;;;6.20;5.00;;;22.50;99.90;;;;;;5031844;28;20480;-71
2021/09/04 09:59:28;;;;;;;8.30;5.07;;;22.60;99.90;;;;;;5032940;28;20735;-71
2021/09/04 10:01:56;;;;;;;4.90;4.40;;;22.70;99.90;;;;;;5032501;28;20470;-71
2021/09/04 10:04:26;;;;;;;5.00;4.40;;;22.70;99.90;;;;;;5032095;28;20458;-71
2021/09/04 10:06:54;;;;;;;5.00;4.43;;;22.80;99.90;;;;;;5029899;28;20507;-71
2021/09/04 10:09:23;;;;;;;4.70;4.30;;;22.90;99.90;;;;;;5030296;28;20460;-71
2021/09/04 10:11:50;;;;;;;4.87;4.47;;;22.90;99.90;;;;;;5032495;28;20877;-71
2021/09/04 10:14:17;;;;;;;4.20;3.80;;;23.00;99.90;;;;;;5032905;28;20500;-71
2021/09/04 10:16:47;;;;;;;4.33;3.93;;;23.10;99.90;;;;;;5032559;28;20987;-71
2021/09/04 10:19:17;;;;;;;5.10;4.13;;;23.20;99.90;;;;;;5032655;28;20538;-72
2021/09/04 10:21:44;;;;;;;4.23;3.83;;;23.30;99.90;;;;;;5032492;28;21206;-71
2021/09/04 10:24:11;;;;;;;4.43;3.93;;;23.40;99.90;;;;;;5032050;28;20464;-71
2021/09/04 10:26:40;;;;;;;5.43;4.40;;;23.40;99.90;;;;;;5032429;28;20484;-71
2021/09/04 10:29:09;;;;;;;4.67;4.00;;;23.50;99.90;;;;;;5032085;28;20475;-71
2021/09/04 10:31:55;;;;;;;5.50;4.73;;;23.60;99.90;;;;;;5032546;28;20463;-71
2021/09/04 10:34:27;;;;;;;5.20;4.37;;;23.70;99.90;;;;;;5031960;28;20991;-71
2021/09/04 10:37:00;;;;;;;4.80;4.10;;;23.80;99.90;;;;;;5013269;28;20476;-71
2021/09/04 10:39:51;;;;;;;5.23;4.17;;;23.90;99.90;;;;;;5011375;28;20449;-71
2021/09/04 10:42:19;;;;;;;5.47;4.00;;;23.90;99.90;;;;;;5024988;28;20551;-71
2021/09/04 10:44:47;;;;;;;5.47;4.43;;;24.00;99.90;;;;;;5021489;28;20465;-71
2021/09/04 10:47:16;;;;;;;5.43;4.60;;;24.00;99.90;;;;;;5020085;28;20484;-71
2021/09/04 10:49:45;;;;;;;7.17;4.50;;;24.00;99.90;;;;;;5021353;28;20457;-71
2021/09/04 10:52:11;;;;;;;5.20;4.50;;;24.10;99.90;;;;;;5022360;28;20460;-71
2021/09/04 10:54:59;;;;;;;6.10;4.50;;;24.20;99.90;;;;;;5020141;28;20457;-71
2021/09/04 10:57:26;;;;;;;4.83;4.33;;;24.30;99.90;;;;;;5022164;28;20488;-71
2021/09/04 11:00:01;;;;;;;5.43;4.90;;;24.40;99.90;;;;;;5022053;28;20510;-71
2021/09/04 11:02:43;;;;;;;5.90;4.53;;;24.40;99.90;;;;;;5021792;28;20835;-71
2021/09/04 11:05:37;;;;;;;4.70;4.30;;;24.40;99.90;;;;;;5021739;28;20555;-71
2021/09/04 11:08:05;;;;;;;4.93;4.27;;;24.50;99.90;;;;;;5021309;28;20483;-71
2021/09/04 11:10:33;;;;;;;5.60;4.43;;;24.60;99.90;;;;;;5021982;28;20460;-71
2021/09/04 11:13:22;;;;;;;5.23;4.73;;;24.60;99.90;;;;;;5020029;28;20462;-71
2021/09/04 11:15:49;;;;;;;4.30;3.90;;;24.70;99.90;;;;;;5009633;28;20464;-71
2021/09/04 11:18:20;;;;;;;4.30;3.90;;;24.70;99.90;;;;;;5022032;28;20480;-71
2021/09/04 11:20:50;;;;;;;4.20;3.80;;;24.80;99.90;;;;;;5021247;28;20460;-71
2021/09/04 11:23:27;;;;;;;4.00;3.60;;;24.90;99.90;;;;;;5021286;28;20487;-72
2021/09/04 11:25:54;;;;;;;4.77;4.10;;;24.90;99.90;;;;;;5021795;28;20451;-71
2021/09/04 11:28:30;;;;;;;4.83;3.93;;;24.90;99.90;;;;;;5020473;28;20480;-71
2021/09/04 11:30:58;;;;;;;4.77;3.90;;;24.90;99.90;;;;;;5019836;28;20461;-71
2021/09/04 11:33:26;;;;;;;4.30;3.80;;;25.00;99.90;;;;;;5019825;28;20464;-71
2021/09/04 11:35:54;;;;;;;6.23;4.03;;;25.10;99.90;;;;;;5021264;28;20448;-72
2021/09/04 11:38:21;;;;;;;4.97;4.47;;;25.20;99.90;;;;;;5020199;28;20485;-71
2021/09/04 11:40:48;;;;;;;4.50;4.10;;;25.30;99.90;;;;;;5019632;28;20514;-72
2021/09/04 11:43:16;;;;;;;4.67;4.20;;;25.30;99.90;;;;;;5021025;28;20456;-71
2021/09/04 11:45:44;;;;;;;4.50;4.10;;;25.30;99.90;;;;;;5028782;28;20488;-71
2021/09/04 11:48:13;;;;;;;4.20;3.80;;;25.40;99.90;;;;;;5030898;28;20476;-71
2021/09/04 11:50:41;;;;;;;6.23;4.30;;;25.40;99.90;;;;;;5030476;28;20467;-71
2021/09/04 11:53:10;;;;;;;4.30;3.90;;;25.40;99.90;;;;;;5030246;28;20463;-72
2021/09/04 11:55:37;;;;;;;5.20;4.63;;;25.40;99.90;;;;;;5023970;28;20476;-71
2021/09/04 11:58:06;;;;;;;4.60;4.18;;;25.50;99.90;;;;;;5026366;28;20458;-70
2021/09/04 12:00:36;;;;;;;5.07;4.30;;;25.50;99.90;;;;;;5028681;28;20202;-70
2021/09/04 12:03:04;;;;;;;5.67;4.70;;;25.50;99.90;;;;;;5028505;28;20460;-71
2021/09/04 12:05:33;;;;;;;8.20;4.00;;;25.60;99.90;;;;;;5029330;28;20467;-71
2021/09/04 12:08:05;;;;;;;5.80;4.70;;;25.60;99.90;;;;;;5028705;28;20510;-71
2021/09/04 12:10:34;;;;;;;4.70;4.30;;;25.70;99.90;;;;;;5029197;28;20460;-71
2021/09/04 12:13:04;;;;;;;5.10;4.53;;;25.70;99.90;;;;;;5028981;28;20471;-71
2021/09/04 12:15:33;;;;;;;6.50;4.07;;;25.80;99.90;;;;;;5028930;28;20516;-71
2021/09/04 12:18:02;;;;;;;6.40;4.03;;;25.80;99.90;;;;;;5028634;28;20575;-71
2021/09/04 12:20:32;;;;;;;4.60;4.07;;;25.90;99.90;;;;;;5028750;28;21075;-71
2021/09/04 12:23:11;;;;;;;3.80;3.50;;;25.80;99.90;;;;;;5028709;28;20471;-71
2021/09/04 12:25:40;;;;;;;4.43;4.03;;;25.80;99.90;;;;;;5029479;28;20476;-71
2021/09/04 12:28:09;;;;;;;4.03;3.50;;;25.90;99.90;;;;;;5028403;28;20484;-71
2021/09/04 12:30:55;;;;;;;3.93;3.50;;;25.90;99.90;;;;;;5028978;28;20472;-71
2021/09/04 12:33:22;;;;;;;3.90;3.50;;;26.00;99.90;;;;;;5028390;28;20472;-70
2021/09/04 12:35:51;;;;;;;4.10;3.70;;;26.00;99.90;;;;;;5028867;28;20467;-71
2021/09/04 12:38:20;;;;;;;4.23;3.83;;;26.00;99.90;;;;;;5028766;28;20514;-71
2021/09/04 12:41:13;;;;;;;3.73;3.33;;;26.00;99.90;;;;;;5028343;28;20469;-71
2021/09/04 12:43:55;;;;;;;4.20;3.60;;;26.10;99.90;;;;;;5026874;28;20476;-71
2021/09/04 12:46:35;;;;;;;4.23;3.83;;;26.20;99.90;;;;;;5028251;28;20843;-70
2021/09/04 12:49:18;;;;;;;3.87;3.50;;;26.20;99.90;;;;;;5028336;28;20821;-71
2021/09/04 12:51:46;;;;;;;4.10;3.67;;;26.20;99.90;;;;;;5026259;28;20495;-71